EJU51VN LIEO-LIMC
Flight info
| Callsign | EJU51VN |
|---|---|
| Flight time | 0h 55m |
| Altitude | 30000 |
| Route | OKIVA P980 DIKEL DCT RATAP DCT MEGER DCT ANAKI P860 DEVOX |
| Aircraft | A320/M-SDE2E3FGHIJ1RWXYZ/LB1 |
Departure
| Time | 2026-05-08 19:30 |
|---|---|
| Airport | Olbia Costa Smeralda Airport (LIEO) |
Arrival
| Time | 2026-05-08 20:25 |
|---|---|
| Airport | Milan Malpensa International Airport (LIMC) |
| Time | Latitude | Longitude | Altitude | Speed | Heading |
|---|---|---|---|---|---|
| 2026-05-08 19:08 | 40.90220 | 9.51616 | 48 ft | 0 kts | 326° |
| 2026-05-08 19:20 | 40.90220 | 9.51617 | 48 ft | 0 kts | 326° |
| 2026-05-08 19:21 | 40.90216 | 9.51620 | 48 ft | 0 kts | 326° |
| 2026-05-08 19:21 | 40.90207 | 9.51628 | 48 ft | 2 kts | 316° |
| 2026-05-08 19:21 | 40.90198 | 9.51644 | 48 ft | 2 kts | 298° |
| 2026-05-08 19:21 | 40.90193 | 9.51662 | 48 ft | 2 kts | 281° |
| 2026-05-08 19:22 | 40.90192 | 9.51682 | 48 ft | 2 kts | 264° |
| 2026-05-08 19:22 | 40.90195 | 9.51702 | 48 ft | 2 kts | 246° |
| 2026-05-08 19:22 | 40.90200 | 9.51712 | 48 ft | 1 kts | 237° |
| 2026-05-08 19:22 | 40.90203 | 9.51719 | 48 ft | 0 kts | 234° |
| 2026-05-08 19:25 | 40.90202 | 9.51717 | 48 ft | 1 kts | 234° |
| 2026-05-08 19:25 | 40.90189 | 9.51693 | 48 ft | 5 kts | 234° |
| 2026-05-08 19:25 | 40.90160 | 9.51640 | 48 ft | 8 kts | 234° |
| 2026-05-08 19:25 | 40.90119 | 9.51559 | 48 ft | 12 kts | 237° |
| 2026-05-08 19:26 | 40.90060 | 9.51489 | 48 ft | 12 kts | 173° |
| 2026-05-08 19:26 | 40.89970 | 9.51511 | 47 ft | 14 kts | 189° |
| 2026-05-08 19:26 | 40.89890 | 9.51416 | 48 ft | 17 kts | 235° |
| 2026-05-08 19:26 | 40.89816 | 9.51275 | 48 ft | 19 kts | 236° |
| 2026-05-08 19:27 | 40.89734 | 9.51119 | 48 ft | 21 kts | 236° |
| 2026-05-08 19:27 | 40.89645 | 9.50948 | 49 ft | 23 kts | 235° |
| 2026-05-08 19:27 | 40.89550 | 9.50769 | 49 ft | 23 kts | 235° |
| 2026-05-08 19:27 | 40.89462 | 9.50603 | 49 ft | 14 kts | 236° |
| 2026-05-08 19:28 | 40.89410 | 9.50502 | 49 ft | 10 kts | 236° |
| 2026-05-08 19:28 | 40.89368 | 9.50448 | 49 ft | 8 kts | 205° |
| 2026-05-08 19:28 | 40.89305 | 9.50448 | 49 ft | 10 kts | 150° |
| 2026-05-08 19:28 | 40.89268 | 9.50531 | 49 ft | 11 kts | 108° |
| 2026-05-08 19:29 | 40.89273 | 9.50628 | 49 ft | 11 kts | 56° |
| 2026-05-08 19:29 | 40.89356 | 9.50785 | 49 ft | 46 kts | 56° |
| 2026-05-08 19:29 | 40.89693 | 9.51430 | 48 ft | 121 kts | 56° |
| 2026-05-08 19:29 | 40.90284 | 9.52557 | 193 ft | 167 kts | 56° |
| 2026-05-08 19:30 | 40.90935 | 9.53840 | 847 ft | 171 kts | 57° |
| 2026-05-08 19:30 | 40.91569 | 9.55164 | 1583 ft | 174 kts | 57° |
| 2026-05-08 19:30 | 40.92206 | 9.56485 | 2271 ft | 171 kts | 55° |
| 2026-05-08 19:30 | 40.92918 | 9.57805 | 2673 ft | 185 kts | 52° |
| 2026-05-08 19:31 | 40.93721 | 9.59222 | 3048 ft | 201 kts | 53° |
| 2026-05-08 19:31 | 40.94591 | 9.60780 | 3345 ft | 224 kts | 53° |
| 2026-05-08 19:31 | 40.95534 | 9.62511 | 3836 ft | 239 kts | 54° |
| 2026-05-08 19:31 | 40.96497 | 9.64300 | 4599 ft | 242 kts | 53° |
| 2026-05-08 19:32 | 40.97694 | 9.65824 | 5362 ft | 244 kts | 28° |
| 2026-05-08 19:32 | 40.99340 | 9.66438 | 5934 ft | 256 kts | 1° |
| 2026-05-08 19:32 | 41.01100 | 9.65855 | 6418 ft | 272 kts | 329° |
| 2026-05-08 19:32 | 41.02612 | 9.64345 | 7175 ft | 276 kts | 322° |
| 2026-05-08 19:33 | 41.04130 | 9.62794 | 7996 ft | 278 kts | 323° |
| 2026-05-08 19:33 | 41.05672 | 9.61249 | 8810 ft | 281 kts | 323° |
| 2026-05-08 19:33 | 41.07231 | 9.59689 | 9605 ft | 284 kts | 323° |
| 2026-05-08 19:33 | 41.08802 | 9.58117 | 10393 ft | 287 kts | 323° |
| 2026-05-08 19:34 | 41.10421 | 9.56494 | 10845 ft | 301 kts | 322° |
| 2026-05-08 19:34 | 41.12136 | 9.54769 | 11241 ft | 316 kts | 322° |
| 2026-05-08 19:34 | 41.13896 | 9.52997 | 11911 ft | 321 kts | 322° |
| 2026-05-08 19:34 | 41.15678 | 9.51202 | 12635 ft | 324 kts | 321° |
| 2026-05-08 19:35 | 41.17482 | 9.49382 | 13256 ft | 329 kts | 321° |
| 2026-05-08 19:35 | 41.19299 | 9.47547 | 13938 ft | 331 kts | 321° |
| 2026-05-08 19:35 | 41.21132 | 9.45695 | 14634 ft | 333 kts | 320° |
| 2026-05-08 19:35 | 41.22974 | 9.43833 | 15288 ft | 335 kts | 320° |
| 2026-05-08 19:36 | 41.24830 | 9.41954 | 15916 ft | 338 kts | 320° |
| 2026-05-08 19:36 | 41.26699 | 9.40059 | 16520 ft | 340 kts | 320° |
| 2026-05-08 19:36 | 41.28581 | 9.38149 | 17097 ft | 343 kts | 320° |
| 2026-05-08 19:36 | 41.30473 | 9.36229 | 17675 ft | 345 kts | 319° |
| 2026-05-08 19:37 | 41.32384 | 9.34289 | 18241 ft | 347 kts | 318° |
| 2026-05-08 19:37 | 41.34304 | 9.32335 | 18802 ft | 350 kts | 318° |
| 2026-05-08 19:37 | 41.36239 | 9.30364 | 19325 ft | 352 kts | 318° |
| 2026-05-08 19:37 | 41.38187 | 9.28378 | 19836 ft | 355 kts | 319° |
| 2026-05-08 19:38 | 41.40151 | 9.26377 | 20324 ft | 358 kts | 319° |
| 2026-05-08 19:38 | 41.42132 | 9.24356 | 20829 ft | 360 kts | 319° |
| 2026-05-08 19:38 | 41.44127 | 9.22318 | 21317 ft | 363 kts | 319° |
| 2026-05-08 19:38 | 41.46135 | 9.20266 | 21767 ft | 366 kts | 319° |
| 2026-05-08 19:39 | 41.48157 | 9.18199 | 22233 ft | 369 kts | 319° |
| 2026-05-08 19:39 | 41.50194 | 9.16115 | 22691 ft | 371 kts | 319° |
| 2026-05-08 19:39 | 41.52259 | 9.14020 | 23115 ft | 375 kts | 321° |
| 2026-05-08 19:39 | 41.54574 | 9.12339 | 23516 ft | 385 kts | 334° |
| 2026-05-08 19:40 | 41.57188 | 9.11436 | 23935 ft | 394 kts | 348° |
| 2026-05-08 19:40 | 41.59954 | 9.11252 | 24376 ft | 400 kts | 354° |
| 2026-05-08 19:40 | 41.62747 | 9.11239 | 24795 ft | 403 kts | 355° |
| 2026-05-08 19:40 | 41.65563 | 9.11242 | 25182 ft | 406 kts | 355° |
| 2026-05-08 19:41 | 41.68392 | 9.11241 | 25586 ft | 408 kts | 355° |
| 2026-05-08 19:41 | 41.71229 | 9.11235 | 26083 ft | 408 kts | 355° |
| 2026-05-08 19:41 | 41.74062 | 9.11222 | 26584 ft | 407 kts | 355° |
| 2026-05-08 19:41 | 41.76887 | 9.11207 | 27081 ft | 406 kts | 355° |
| 2026-05-08 19:42 | 41.79703 | 9.11188 | 27567 ft | 406 kts | 355° |
| 2026-05-08 19:42 | 41.82527 | 9.11168 | 28048 ft | 405 kts | 355° |
| 2026-05-08 19:42 | 41.85336 | 9.11148 | 28513 ft | 405 kts | 355° |
| 2026-05-08 19:42 | 41.88154 | 9.11126 | 28910 ft | 406 kts | 355° |
| 2026-05-08 19:43 | 41.90986 | 9.11103 | 29250 ft | 408 kts | 356° |
| 2026-05-08 19:43 | 41.93826 | 9.11082 | 29600 ft | 409 kts | 355° |
| 2026-05-08 19:43 | 41.96669 | 9.11061 | 29953 ft | 410 kts | 356° |
| 2026-05-08 19:43 | 41.99532 | 9.11037 | 30071 ft | 413 kts | 356° |
| 2026-05-08 19:44 | 42.02402 | 9.11014 | 30078 ft | 413 kts | 356° |
| 2026-05-08 19:44 | 42.08153 | 9.10969 | 30077 ft | 414 kts | 356° |
| 2026-05-08 19:45 | 42.13899 | 9.10927 | 30084 ft | 414 kts | 356° |
| 2026-05-08 19:45 | 42.19655 | 9.10884 | 30074 ft | 414 kts | 356° |
| 2026-05-08 19:46 | 42.25409 | 9.10839 | 30080 ft | 414 kts | 356° |
| 2026-05-08 19:46 | 42.34037 | 9.10771 | 30080 ft | 413 kts | 355° |
| 2026-05-08 19:47 | 42.39782 | 9.10725 | 30078 ft | 413 kts | 355° |
| 2026-05-08 19:47 | 42.45525 | 9.10680 | 30071 ft | 413 kts | 355° |
| 2026-05-08 19:48 | 42.51268 | 9.10632 | 30069 ft | 413 kts | 355° |
| 2026-05-08 19:48 | 42.57006 | 9.10586 | 30065 ft | 413 kts | 355° |
| 2026-05-08 19:49 | 42.62754 | 9.10537 | 30062 ft | 413 kts | 356° |
| 2026-05-08 19:49 | 42.68493 | 9.10491 | 30050 ft | 413 kts | 356° |
| 2026-05-08 19:50 | 42.74232 | 9.10678 | 30037 ft | 414 kts | 0° |
| 2026-05-08 19:50 | 42.79974 | 9.11335 | 30033 ft | 414 kts | 1° |
| 2026-05-08 19:51 | 42.85710 | 9.12017 | 30026 ft | 415 kts | 1° |
| 2026-05-08 19:51 | 42.91451 | 9.12693 | 30026 ft | 415 kts | 1° |
| 2026-05-08 19:52 | 42.97197 | 9.13367 | 30039 ft | 415 kts | 1° |
| 2026-05-08 19:52 | 43.02934 | 9.14039 | 30039 ft | 414 kts | 1° |
| 2026-05-08 19:53 | 43.08663 | 9.14714 | 30041 ft | 413 kts | 0° |
| 2026-05-08 19:53 | 43.14380 | 9.15382 | 30042 ft | 413 kts | 0° |
| 2026-05-08 19:54 | 43.20100 | 9.16052 | 30037 ft | 413 kts | 1° |
| 2026-05-08 19:54 | 43.25813 | 9.16727 | 30040 ft | 413 kts | 1° |
| 2026-05-08 19:55 | 43.31513 | 9.17019 | 30033 ft | 408 kts | 352° |
| 2026-05-08 19:55 | 43.37029 | 9.15632 | 30035 ft | 401 kts | 338° |
| 2026-05-08 19:56 | 43.42260 | 9.13040 | 30038 ft | 401 kts | 335° |
| 2026-05-08 19:56 | 43.47477 | 9.10335 | 30038 ft | 401 kts | 335° |
| 2026-05-08 19:57 | 43.52692 | 9.07643 | 30034 ft | 401 kts | 335° |
| 2026-05-08 19:57 | 43.57908 | 9.04957 | 30033 ft | 401 kts | 336° |
| 2026-05-08 19:58 | 43.63130 | 9.02266 | 30033 ft | 402 kts | 336° |
| 2026-05-08 19:58 | 43.68352 | 8.99572 | 30034 ft | 401 kts | 336° |
| 2026-05-08 19:59 | 43.73564 | 8.96878 | 30028 ft | 401 kts | 336° |
| 2026-05-08 19:59 | 43.78774 | 8.94180 | 30032 ft | 400 kts | 336° |
| 2026-05-08 20:00 | 43.83979 | 8.91478 | 30031 ft | 400 kts | 336° |
| 2026-05-08 20:00 | 43.89188 | 8.88771 | 30034 ft | 400 kts | 336° |
| 2026-05-08 20:01 | 43.94386 | 8.86064 | 30039 ft | 400 kts | 336° |
| 2026-05-08 20:01 | 43.99587 | 8.83347 | 30042 ft | 400 kts | 336° |
| 2026-05-08 20:02 | 44.04741 | 8.80652 | 29644 ft | 392 kts | 336° |
| 2026-05-08 20:02 | 44.07287 | 8.79317 | 29034 ft | 392 kts | 336° |
| 2026-05-08 20:02 | 44.09818 | 8.77989 | 28468 ft | 390 kts | 336° |
| 2026-05-08 20:03 | 44.12352 | 8.76658 | 27867 ft | 390 kts | 336° |
| 2026-05-08 20:03 | 44.14887 | 8.75326 | 27189 ft | 391 kts | 336° |
| 2026-05-08 20:03 | 44.17434 | 8.74020 | 26460 ft | 394 kts | 340° |
| 2026-05-08 20:03 | 44.20093 | 8.73102 | 25707 ft | 399 kts | 348° |
| 2026-05-08 20:04 | 44.22857 | 8.72711 | 24962 ft | 403 kts | 356° |
| 2026-05-08 20:04 | 44.25642 | 8.72747 | 24415 ft | 400 kts | 359° |
| 2026-05-08 20:04 | 44.28402 | 8.72874 | 23907 ft | 396 kts | 360° |
| 2026-05-08 20:04 | 44.31129 | 8.73011 | 23388 ft | 392 kts | 0° |
| 2026-05-08 20:05 | 44.33833 | 8.73143 | 22844 ft | 389 kts | 0° |
| 2026-05-08 20:05 | 44.36520 | 8.73267 | 22312 ft | 386 kts | 0° |
| 2026-05-08 20:05 | 44.39193 | 8.73387 | 21786 ft | 383 kts | 0° |
| 2026-05-08 20:05 | 44.41843 | 8.73504 | 21262 ft | 380 kts | 0° |
| 2026-05-08 20:06 | 44.44469 | 8.73618 | 20753 ft | 377 kts | 0° |
| 2026-05-08 20:06 | 44.47079 | 8.73731 | 20265 ft | 374 kts | 0° |
| 2026-05-08 20:06 | 44.49670 | 8.73844 | 19775 ft | 371 kts | 0° |
| 2026-05-08 20:06 | 44.52232 | 8.73954 | 19281 ft | 369 kts | 0° |
| 2026-05-08 20:07 | 44.54786 | 8.74065 | 18800 ft | 366 kts | 0° |
| 2026-05-08 20:07 | 44.57320 | 8.74173 | 18308 ft | 364 kts | 1° |
| 2026-05-08 20:07 | 44.59838 | 8.74282 | 17820 ft | 361 kts | 1° |
| 2026-05-08 20:07 | 44.62333 | 8.74390 | 17404 ft | 357 kts | 1° |
| 2026-05-08 20:08 | 44.64779 | 8.74496 | 17207 ft | 346 kts | 1° |
| 2026-05-08 20:08 | 44.67151 | 8.74600 | 17022 ft | 336 kts | 0° |
| 2026-05-08 20:08 | 44.69442 | 8.74429 | 16849 ft | 325 kts | 351° |
| 2026-05-08 20:08 | 44.71607 | 8.73726 | 16638 ft | 316 kts | 341° |
| 2026-05-08 20:09 | 44.73666 | 8.72711 | 16304 ft | 312 kts | 339° |
| 2026-05-08 20:09 | 44.75693 | 8.71645 | 15926 ft | 311 kts | 338° |
| 2026-05-08 20:09 | 44.77716 | 8.70575 | 15546 ft | 310 kts | 339° |
| 2026-05-08 20:09 | 44.79724 | 8.69518 | 15168 ft | 308 kts | 339° |
| 2026-05-08 20:10 | 44.81723 | 8.68473 | 14776 ft | 307 kts | 339° |
| 2026-05-08 20:10 | 44.83721 | 8.67433 | 14403 ft | 306 kts | 339° |
| 2026-05-08 20:10 | 44.85711 | 8.66398 | 14016 ft | 304 kts | 339° |
| 2026-05-08 20:10 | 44.87688 | 8.65370 | 13638 ft | 303 kts | 339° |
| 2026-05-08 20:11 | 44.89653 | 8.64348 | 13269 ft | 301 kts | 339° |
| 2026-05-08 20:11 | 44.91613 | 8.63328 | 12893 ft | 299 kts | 339° |
| 2026-05-08 20:11 | 44.93556 | 8.62317 | 12533 ft | 297 kts | 339° |
| 2026-05-08 20:11 | 44.95485 | 8.61313 | 12152 ft | 296 kts | 340° |
| 2026-05-08 20:12 | 44.97411 | 8.60311 | 11760 ft | 295 kts | 339° |
| 2026-05-08 20:12 | 44.99332 | 8.59347 | 11378 ft | 293 kts | 342° |
| 2026-05-08 20:12 | 45.01295 | 8.58622 | 10967 ft | 292 kts | 352° |
| 2026-05-08 20:12 | 45.03300 | 8.58885 | 10531 ft | 291 kts | 20° |
| 2026-05-08 20:13 | 45.05019 | 8.60302 | 10063 ft | 289 kts | 45° |
| 2026-05-08 20:13 | 45.06133 | 8.62618 | 9526 ft | 286 kts | 68° |
| 2026-05-08 20:13 | 45.06830 | 8.65224 | 8988 ft | 283 kts | 70° |
| 2026-05-08 20:13 | 45.07191 | 8.66606 | 8694 ft | 282 kts | 70° |
| 2026-05-08 20:14 | 45.07664 | 8.68407 | 8299 ft | 280 kts | 70° |
| 2026-05-08 20:14 | 45.08206 | 8.70473 | 7868 ft | 278 kts | 70° |
| 2026-05-08 20:14 | 45.08873 | 8.73007 | 7329 ft | 275 kts | 70° |
| 2026-05-08 20:14 | 45.09088 | 8.73827 | 7149 ft | 274 kts | 70° |
| 2026-05-08 20:15 | 45.09753 | 8.76341 | 6602 ft | 273 kts | 70° |
| 2026-05-08 20:15 | 45.10429 | 8.78824 | 6047 ft | 270 kts | 65° |
| 2026-05-08 20:15 | 45.11598 | 8.80837 | 5555 ft | 268 kts | 31° |
| 2026-05-08 20:15 | 45.13368 | 8.81586 | 5308 ft | 269 kts | 2° |
| 2026-05-08 20:16 | 45.15232 | 8.81435 | 5068 ft | 268 kts | 356° |
| 2026-05-08 20:16 | 45.17085 | 8.81220 | 4820 ft | 267 kts | 356° |
| 2026-05-08 20:16 | 45.18932 | 8.81044 | 4571 ft | 265 kts | 358° |
| 2026-05-08 20:16 | 45.20773 | 8.80903 | 4317 ft | 264 kts | 358° |
| 2026-05-08 20:17 | 45.22602 | 8.80783 | 4108 ft | 263 kts | 359° |
| 2026-05-08 20:17 | 45.24429 | 8.80677 | 4081 ft | 263 kts | 359° |
| 2026-05-08 20:17 | 45.26258 | 8.80575 | 4076 ft | 263 kts | 359° |
| 2026-05-08 20:17 | 45.28089 | 8.80477 | 4068 ft | 263 kts | 359° |
| 2026-05-08 20:18 | 45.29920 | 8.80381 | 4070 ft | 263 kts | 359° |
| 2026-05-08 20:18 | 45.31747 | 8.80284 | 4069 ft | 258 kts | 359° |
| 2026-05-08 20:18 | 45.33483 | 8.80191 | 4065 ft | 243 kts | 359° |
| 2026-05-08 20:18 | 45.35122 | 8.80104 | 4059 ft | 228 kts | 359° |
| 2026-05-08 20:19 | 45.36682 | 8.80015 | 4068 ft | 224 kts | 357° |
| 2026-05-08 20:19 | 45.38228 | 8.79776 | 4077 ft | 224 kts | 354° |
| 2026-05-08 20:19 | 45.39772 | 8.79475 | 4077 ft | 224 kts | 353° |
| 2026-05-08 20:19 | 45.41308 | 8.79164 | 4079 ft | 223 kts | 353° |
| 2026-05-08 20:20 | 45.42848 | 8.78857 | 4079 ft | 223 kts | 353° |
| 2026-05-08 20:20 | 45.44384 | 8.78498 | 4081 ft | 224 kts | 351° |
| 2026-05-08 20:20 | 45.45911 | 8.78083 | 4083 ft | 224 kts | 350° |
| 2026-05-08 20:20 | 45.47442 | 8.77659 | 4082 ft | 224 kts | 350° |
| 2026-05-08 20:21 | 45.48971 | 8.77235 | 4039 ft | 224 kts | 350° |
| 2026-05-08 20:21 | 45.50463 | 8.76818 | 3759 ft | 214 kts | 350° |
| 2026-05-08 20:21 | 45.51899 | 8.76412 | 3430 ft | 205 kts | 350° |
| 2026-05-08 20:21 | 45.53211 | 8.76028 | 3215 ft | 182 kts | 349° |
| 2026-05-08 20:22 | 45.54404 | 8.75653 | 2882 ft | 169 kts | 349° |
| 2026-05-08 20:22 | 45.55516 | 8.75333 | 2588 ft | 157 kts | 353° |
| 2026-05-08 20:22 | 45.56569 | 8.75098 | 2243 ft | 152 kts | 351° |
| 2026-05-08 20:22 | 45.57590 | 8.74784 | 1853 ft | 150 kts | 352° |
| 2026-05-08 20:23 | 45.58595 | 8.74564 | 1533 ft | 143 kts | 352° |
| 2026-05-08 20:23 | 45.59548 | 8.74301 | 1228 ft | 137 kts | 351° |
| 2026-05-08 20:23 | 45.60468 | 8.74046 | 1008 ft | 134 kts | 351° |
| 2026-05-08 20:23 | 45.61386 | 8.73794 | 873 ft | 135 kts | 351° |
| 2026-05-08 20:24 | 45.62281 | 8.73551 | 776 ft | 118 kts | 350° |
| 2026-05-08 20:24 | 45.62917 | 8.73379 | 776 ft | 68 kts | 348° |
| 2026-05-08 20:24 | 45.63327 | 8.73267 | 776 ft | 56 kts | 349° |
| 2026-05-08 20:24 | 45.63696 | 8.73164 | 776 ft | 51 kts | 349° |
| 2026-05-08 20:25 | 45.64030 | 8.73069 | 776 ft | 46 kts | 351° |
| 2026-05-08 20:25 | 45.64252 | 8.72979 | 776 ft | 20 kts | 327° |
| 2026-05-08 20:25 | 45.64333 | 8.72846 | 776 ft | 8 kts | 303° |
| 2026-05-08 20:25 | 45.64354 | 8.72799 | 776 ft | 2 kts | 303° |
| 2026-05-08 20:26 | 45.64365 | 8.72775 | 776 ft | 3 kts | 303° |
| 2026-05-08 20:26 | 45.64384 | 8.72736 | 776 ft | 6 kts | 308° |
| 2026-05-08 20:26 | 45.64422 | 8.72682 | 776 ft | 9 kts | 329° |
| 2026-05-08 20:26 | 45.64473 | 8.72613 | 776 ft | 11 kts | 281° |
| 2026-05-08 20:27 | 45.64460 | 8.72487 | 776 ft | 14 kts | 258° |
| 2026-05-08 20:27 | 45.64448 | 8.72397 | 776 ft | 4 kts | 260° |
| 2026-05-08 20:27 | 45.64475 | 8.72364 | 776 ft | 7 kts | 348° |
| 2026-05-08 20:27 | 45.64512 | 8.72354 | 776 ft | 2 kts | 349° |
| 2026-05-08 20:28 | 45.64519 | 8.72352 | 776 ft | 0 kts | 350° |